createdAt,value
2022-08-05T00:00:26.030Z,100454.72
2022-08-05T00:02:57.680Z,100456.38
2022-08-05T00:06:04.908Z,100460.59
2022-08-05T00:08:34.364Z,100450.31
2022-08-05T00:11:07.609Z,100444.63
2022-08-05T00:13:53.141Z,100450.31
2022-08-05T00:16:35.721Z,100443.28
2022-08-05T00:19:08.628Z,100443.28
2022-08-05T00:21:42.639Z,100443.81
2022-08-05T00:24:16.118Z,100447.34
2022-08-05T00:26:52.179Z,100445.56
2022-08-05T00:29:25.406Z,100438.84
2022-08-05T00:32:12.571Z,100435.03
2022-08-05T00:35:05.558Z,100440.19
2022-08-05T00:37:53.235Z,100440.53
2022-08-05T00:40:27.733Z,100444.06
2022-08-05T00:43:00.263Z,100440.25
2022-08-05T00:45:38.580Z,100437.22
2022-08-05T00:48:14.740Z,100446.53
2022-08-05T00:50:46.724Z,100450.38
2022-08-05T00:54:00.971Z,100452.91
2022-08-05T00:56:10.451Z,100470.09
2022-08-05T00:58:45.017Z,100483.66
2022-08-05T01:01:24.942Z,100465.72
2022-08-05T01:04:14.112Z,100466.34
2022-08-05T01:06:48.746Z,100470.50
2022-08-05T01:09:20.594Z,100471.31
2022-08-05T01:11:52.489Z,100469.34
2022-08-05T01:14:27.812Z,100471.25
2022-08-05T01:17:00.496Z,100476.19
2022-08-05T01:19:56.151Z,100477.59
2022-08-05T01:22:27.937Z,100487.81
2022-08-05T01:25:00.273Z,100471.63
2022-08-05T01:27:33.045Z,100478.19
2022-08-05T01:30:05.224Z,100475.13
2022-08-05T01:32:49.263Z,100478.44
2022-08-05T01:35:51.639Z,100488.19
2022-08-05T01:38:14.574Z,100468.97
2022-08-05T01:40:56.765Z,100467.66
2022-08-05T01:43:28.710Z,100473.56
2022-08-05T01:46:07.143Z,100473.97
2022-08-05T01:48:49.787Z,100463.22
2022-08-05T01:51:21.810Z,100473.63
2022-08-05T01:53:57.391Z,100482.69
2022-08-05T01:58:09.432Z,100471.63
2022-08-05T01:59:22.469Z,100467.78
2022-08-05T02:01:54.717Z,100491.28
2022-08-05T02:04:26.966Z,100467.44
2022-08-05T02:06:58.853Z,100467.44
2022-08-05T02:09:30.364Z,100466.16
2022-08-05T02:12:04.084Z,100468.06
2022-08-05T02:14:35.608Z,100462.13
2022-08-05T02:17:08.191Z,100459.41
2022-08-05T02:19:49.614Z,100471.88
2022-08-05T02:22:26.671Z,100455.09
2022-08-05T02:25:00.214Z,100458.91
2022-08-05T02:27:59.778Z,100460.84
2022-08-05T02:30:23.879Z,100463.06
2022-08-05T02:32:58.525Z,100473.13
2022-08-05T02:35:33.400Z,100464.47
2022-08-05T02:38:09.734Z,100473.75
2022-08-05T02:40:45.080Z,100469.94
2022-08-05T02:43:19.026Z,100473.75
2022-08-05T02:45:52.879Z,100469.44
2022-08-05T02:48:29.104Z,100466.72
2022-08-05T02:51:01.479Z,100461.91
2022-08-05T02:53:39.173Z,100468.75
2022-08-05T02:56:15.969Z,100470.19
2022-08-05T02:58:51.413Z,100463.13
2022-08-05T03:01:24.881Z,100466.97
2022-08-05T03:04:02.651Z,100459.91
2022-08-05T03:06:56.095Z,100456.09
2022-08-05T03:09:27.061Z,100454.97
2022-08-05T03:12:09.467Z,100454.97
2022-08-05T03:14:45.698Z,100455.78
2022-08-05T03:17:18.174Z,100451.94
2022-08-05T03:19:51.801Z,100454.34
2022-08-05T03:22:32.523Z,100440.16
2022-08-05T03:25:33.207Z,100439.53
2022-08-05T03:27:58.949Z,100433.47
2022-08-05T03:30:35.188Z,100432.03
2022-08-05T03:33:07.346Z,100427.56
2022-08-05T03:35:40.831Z,100436.03
2022-08-05T03:38:14.277Z,100445.31
2022-08-05T03:40:48.537Z,100460.53
2022-08-05T03:44:08.598Z,100458.28
2022-08-05T03:46:12.465Z,100448.53
2022-08-05T03:48:45.379Z,100452.53
2022-08-05T03:52:37.066Z,100456.56
2022-08-05T03:55:54.743Z,100448.88
2022-08-05T03:57:01.836Z,100456.75
2022-08-05T03:59:54.849Z,100451.28
2022-08-05T04:02:37.396Z,100462.97
2022-08-05T04:05:10.221Z,100469.72
2022-08-05T04:07:58.080Z,100472.94
2022-08-05T04:10:37.553Z,100473.94
2022-08-05T04:13:10.039Z,100470.59
2022-08-05T04:16:03.307Z,100465.50
2022-08-05T04:18:34.432Z,100456.28
2022-08-05T04:21:06.227Z,100451.81
2022-08-05T04:24:05.163Z,100441.59
2022-08-05T04:26:32.341Z,100450.44
2022-08-05T04:29:07.312Z,100458.19
2022-08-05T04:31:39.506Z,100462.06
2022-08-05T04:34:32.968Z,100460.81
2022-08-05T04:37:03.479Z,100467.28
2022-08-05T04:39:35.369Z,100482.38
2022-08-05T04:42:07.539Z,100488.47
2022-08-05T04:44:40.628Z,100495.91
2022-08-05T04:47:16.985Z,100487.88
2022-08-05T04:50:02.906Z,100489.50
2022-08-05T04:52:43.300Z,100491.25
2022-08-05T04:55:16.366Z,100481.94
2022-08-05T04:57:54.011Z,100479.84
2022-08-05T05:00:26.030Z,100481.09
2022-08-05T05:03:02.866Z,100483.31
2022-08-05T05:06:40.533Z,100482.84
2022-08-05T05:08:30.267Z,100485.91
2022-08-05T05:11:02.148Z,100484.91
2022-08-05T05:13:43.515Z,100483.88
2022-08-05T05:16:16.119Z,100489.38
2022-08-05T05:19:16.361Z,100491.97
2022-08-05T05:21:43.259Z,100505.84
2022-08-05T05:24:18.393Z,100496.31
2022-08-05T05:26:51.776Z,100509.16
2022-08-05T05:29:23.981Z,100517.09
2022-08-05T05:32:15.659Z,100535.63
2022-08-05T05:34:49.858Z,100547.13
2022-08-05T05:37:37.512Z,100560.31
2022-08-05T05:40:16.258Z,100553.47
2022-08-05T05:42:51.638Z,100537.59
2022-08-05T05:45:23.261Z,100539.84
2022-08-05T05:48:07.110Z,100536.13
2022-08-05T05:50:42.561Z,100543.03
2022-08-05T05:53:22.212Z,100552.06
2022-08-05T05:56:00.701Z,100560.91
2022-08-05T05:58:35.003Z,100580.16
2022-08-05T06:01:13.405Z,100608.75
2022-08-05T06:04:00.719Z,100610.53
2022-08-05T06:06:34.940Z,100606.81
2022-08-05T06:09:07.661Z,100601.34
2022-08-05T06:11:39.526Z,100614.22
2022-08-05T06:14:11.434Z,100624.97
2022-08-05T06:16:43.022Z,100637.00
2022-08-05T06:19:33.005Z,100642.66
2022-08-05T06:22:06.917Z,100642.94
2022-08-05T06:24:38.811Z,100654.66
2022-08-05T06:27:17.174Z,100657.81
2022-08-05T06:30:05.958Z,100645.97
2022-08-05T06:32:50.723Z,100635.03
2022-08-05T06:36:03.925Z,100626.69
2022-08-05T06:38:14.542Z,100624.66
2022-08-05T06:40:47.649Z,100622.38
2022-08-05T06:43:58.763Z,100618.59
2022-08-05T06:46:13.011Z,100621.94
2022-08-05T06:48:56.311Z,100631.59
2022-08-05T06:51:31.283Z,100624.81
2022-08-05T06:54:03.364Z,100631.25
2022-08-05T06:56:35.293Z,100630.72
2022-08-05T06:59:08.653Z,100621.97
2022-08-05T07:01:42.436Z,100616.50
2022-08-05T07:04:14.407Z,100626.84
2022-08-05T07:06:50.672Z,100633.69
2022-08-05T07:09:24.963Z,100636.13
2022-08-05T07:11:56.723Z,100639.63
2022-08-05T07:14:54.102Z,100633.94
2022-08-05T07:17:59.397Z,100647.22
2022-08-05T07:20:32.991Z,100665.34
2022-08-05T07:23:06.526Z,100687.28
2022-08-05T07:25:55.274Z,100684.91
2022-08-05T07:28:28.747Z,100676.56
2022-08-05T07:31:00.295Z,100667.31
2022-08-05T07:33:36.745Z,100666.81
2022-08-05T07:36:20.125Z,100667.88
2022-08-05T07:38:55.051Z,100674.59
2022-08-05T07:42:09.015Z,100668.31
2022-08-05T07:44:19.389Z,100657.09
2022-08-05T07:46:51.193Z,100664.69
2022-08-05T07:49:23.315Z,100662.44
2022-08-05T07:51:55.275Z,100659.53
2022-08-05T07:54:30.735Z,100650.06
2022-08-05T07:57:17.627Z,100657.88
2022-08-05T07:59:55.286Z,100652.88
2022-08-05T08:02:31.421Z,100652.72
2022-08-05T08:05:19.306Z,100639.88
2022-08-05T08:07:59.745Z,100664.59
2022-08-05T08:10:32.202Z,100667.16
2022-08-05T08:13:04.841Z,100676.09
2022-08-05T08:16:50.075Z,100397.06
2022-08-05T08:18:29.390Z,100647.06
2022-08-05T08:21:03.650Z,100627.72
2022-08-05T08:24:01.457Z,100607.22
2022-08-05T08:26:29.604Z,100605.44
2022-08-05T08:29:21.636Z,100623.59
2022-08-05T08:31:53.337Z,100656.25
2022-08-05T08:34:29.993Z,100668.03
2022-08-05T08:37:05.558Z,100675.19
2022-08-05T08:39:38.186Z,100691.75
2022-08-05T08:42:34.127Z,100702.97
2022-08-05T08:45:24.434Z,100690.94
2022-08-05T08:48:12.497Z,100672.78
2022-08-05T08:51:23.079Z,100675.81
2022-08-05T08:53:45.023Z,100699.69
2022-08-05T08:56:17.316Z,100712.72
2022-08-05T08:58:50.497Z,100717.47
2022-08-05T09:01:22.298Z,100712.09
2022-08-05T09:03:57.230Z,100712.59
2022-08-05T09:06:30.502Z,100708.00
2022-08-05T09:09:02.553Z,100711.09
2022-08-05T09:11:52.037Z,100711.69
2022-08-05T09:14:56.411Z,100725.72
2022-08-05T09:17:42.238Z,100744.16
2022-08-05T09:20:09.019Z,100736.84
2022-08-05T09:22:40.524Z,100738.34
2022-08-05T09:26:00.154Z,100740.75
2022-08-05T09:28:15.712Z,100742.66
2022-08-05T09:30:53.323Z,100745.53
2022-08-05T09:33:35.106Z,100756.69
2022-08-05T09:36:11.801Z,100767.88
2022-08-05T09:38:48.404Z,100752.47
2022-08-05T09:41:20.916Z,100746.66
2022-08-05T09:43:53.246Z,100755.59
2022-08-05T09:46:28.192Z,100747.28
2022-08-05T09:49:08.094Z,100733.34
2022-08-05T09:51:51.187Z,100706.19
2022-08-05T09:54:29.346Z,100700.59
2022-08-05T09:57:01.598Z,100701.25
2022-08-05T09:59:35.104Z,100688.09
2022-08-05T10:02:08.869Z,100690.84
2022-08-05T10:04:44.217Z,100685.66
2022-08-05T10:07:20.498Z,100684.84
2022-08-05T10:10:15.092Z,100649.53
2022-08-05T10:12:49.908Z,100646.75
2022-08-05T10:15:22.086Z,100668.56
2022-08-05T10:17:56.541Z,100679.66
2022-08-05T10:20:29.480Z,100704.59
2022-08-05T10:23:01.331Z,100712.00
2022-08-05T10:25:33.311Z,100691.88
2022-08-05T10:28:13.895Z,100716.00
2022-08-05T10:32:47.307Z,100746.72
2022-08-05T10:33:41.561Z,100772.91
2022-08-05T10:36:13.359Z,100766.72
2022-08-05T10:38:47.462Z,100779.78
2022-08-05T10:41:23.613Z,100762.09
2022-08-05T10:43:55.627Z,100733.13
2022-08-05T10:46:27.150Z,100735.47
2022-08-05T10:49:05.065Z,100734.84
2022-08-05T10:51:58.335Z,100734.50
2022-08-05T10:54:34.952Z,100740.97
2022-08-05T10:57:18.396Z,100741.84
2022-08-05T11:00:03.195Z,100737.13
2022-08-05T11:02:43.726Z,100719.56
2022-08-05T11:05:24.303Z,100703.44
2022-08-05T11:08:02.669Z,100696.88
2022-08-05T11:10:50.431Z,100694.31
2022-08-05T11:13:30.978Z,100704.94
2022-08-05T11:16:10.238Z,100708.38
2022-08-05T11:18:43.587Z,100736.69
2022-08-05T11:21:19.084Z,100741.53
2022-08-05T11:24:04.886Z,100748.81
2022-08-05T11:26:49.576Z,100753.56
2022-08-05T11:29:21.721Z,100753.31
2022-08-05T11:32:00.527Z,100747.69
2022-08-05T11:34:32.841Z,100740.75
2022-08-05T11:38:14.280Z,100755.34
2022-08-05T11:40:02.753Z,100751.53
2022-08-05T11:42:37.911Z,100765.75
2022-08-05T11:45:23.418Z,100755.56
2022-08-05T11:48:04.033Z,100761.19
2022-08-05T11:50:35.558Z,100751.59
2022-08-05T11:53:09.852Z,100740.13
2022-08-05T11:55:41.944Z,100744.00
2022-08-05T11:58:17.295Z,100590.25
2022-08-05T12:00:52.869Z,100737.09
2022-08-05T12:03:31.580Z,100731.97
2022-08-05T12:06:05.971Z,100735.78
2022-08-05T12:08:48.016Z,100742.09
2022-08-05T12:11:22.903Z,100735.59
2022-08-05T12:13:55.086Z,100734.03
2022-08-05T12:16:30.289Z,100742.50
2022-08-05T12:19:02.169Z,100740.47
2022-08-05T12:21:33.688Z,100751.44
2022-08-05T12:24:11.092Z,100745.84
2022-08-05T12:26:43.961Z,100744.06
2022-08-05T12:29:17.785Z,100744.56
2022-08-05T12:31:53.828Z,100742.25
2022-08-05T12:34:28.776Z,100732.72
2022-08-05T12:37:00.426Z,100731.66
2022-08-05T12:39:37.068Z,100730.13
2022-08-05T12:42:10.427Z,100728.84
2022-08-05T12:44:47.382Z,100733.59
2022-08-05T12:47:19.317Z,100739.41
2022-08-05T12:50:02.305Z,100738.50
2022-08-05T12:52:39.014Z,100739.41
2022-08-05T12:55:13.965Z,100738.50
2022-08-05T12:58:48.440Z,100737.78
2022-08-05T13:01:59.785Z,100742.00
2022-08-05T13:03:31.923Z,100740.56
2022-08-05T13:06:04.364Z,100739.25
2022-08-05T13:08:36.180Z,100725.91
2022-08-05T13:11:09.359Z,100732.13
2022-08-05T13:14:05.713Z,100728.19
2022-08-05T13:16:33.645Z,100738.00
2022-08-05T13:19:05.642Z,100745.41
2022-08-05T13:21:52.326Z,100731.00
2022-08-05T13:24:51.380Z,100734.75
2022-08-05T13:27:35.414Z,100733.63
2022-08-05T13:30:34.658Z,100730.53
2022-08-05T13:33:02.339Z,100729.25
2022-08-05T13:35:50.313Z,100722.16
2022-08-05T13:38:36.041Z,100733.91
2022-08-05T13:41:09.865Z,100735.47
2022-08-05T13:43:45.474Z,100727.19
2022-08-05T13:46:44.248Z,100733.84
2022-08-05T13:49:19.722Z,100734.06
2022-08-05T13:51:52.891Z,100728.13
2022-08-05T13:54:26.866Z,100736.25
2022-08-05T13:56:58.368Z,100738.31
2022-08-05T13:59:30.937Z,100738.44
2022-08-05T14:02:02.511Z,100744.13
2022-08-05T14:04:53.058Z,100742.22
2022-08-05T14:08:00.751Z,100734.94
2022-08-05T14:10:18.728Z,100743.47
2022-08-05T14:12:54.644Z,100738.63
2022-08-05T14:16:07.498Z,100737.19
2022-08-05T14:18:23.493Z,100736.72
2022-08-05T14:20:55.732Z,100733.94
2022-08-05T14:23:34.901Z,100746.66
2022-08-05T14:26:08.299Z,100742.50
2022-08-05T14:29:00.175Z,100739.06
2022-08-05T14:32:03.751Z,100747.47
2022-08-05T14:34:23.790Z,100756.94
2022-08-05T14:36:55.873Z,100762.34
2022-08-05T14:39:27.430Z,100762.91
2022-08-05T14:42:19.076Z,100771.94
2022-08-05T14:44:52.582Z,100767.03
2022-08-05T14:47:58.334Z,100769.41
2022-08-05T14:50:19.035Z,100768.34
2022-08-05T14:52:56.850Z,100773.41
2022-08-05T14:55:39.220Z,100762.03
2022-08-05T14:58:13.916Z,100763.19
2022-08-05T15:00:59.592Z,100766.34
2022-08-05T15:03:34.158Z,100759.84
2022-08-05T15:06:14.797Z,100751.59
2022-08-05T15:09:01.403Z,100750.41
2022-08-05T15:11:52.974Z,100768.19
2022-08-05T15:14:34.921Z,100768.28
2022-08-05T15:17:45.807Z,100753.41
2022-08-05T15:20:08.840Z,100767.09
2022-08-05T15:22:43.083Z,100770.59
2022-08-05T15:25:16.402Z,100761.22
2022-08-05T15:27:55.638Z,100762.28
2022-08-05T15:30:28.748Z,100766.53
2022-08-05T15:33:00.583Z,100778.78
2022-08-05T15:35:36.311Z,100782.69
2022-08-05T15:38:35.815Z,100781.41
2022-08-05T15:41:21.997Z,100782.41
2022-08-05T15:43:55.442Z,100786.25
2022-08-05T15:46:27.270Z,100794.28
2022-08-05T15:49:09.722Z,100795.88
2022-08-05T15:52:04.107Z,100802.34
2022-08-05T15:54:34.898Z,100815.03
2022-08-05T15:57:07.860Z,100808.41
2022-08-05T15:59:39.534Z,100816.16
2022-08-05T16:02:14.707Z,100811.94
2022-08-05T16:04:52.747Z,100820.59
2022-08-05T16:07:24.659Z,100828.34
2022-08-05T16:10:01.045Z,100819.56
2022-08-05T16:12:33.062Z,100819.22
2022-08-05T16:15:04.615Z,100839.75
2022-08-05T16:17:36.474Z,100854.13
2022-08-05T16:20:11.615Z,100844.97
2022-08-05T16:22:44.088Z,100844.22
2022-08-05T16:25:15.867Z,100841.81
2022-08-05T16:28:05.659Z,100852.41
2022-08-05T16:30:37.893Z,100873.22
2022-08-05T16:33:09.641Z,100867.91
2022-08-05T16:35:44.590Z,100878.00
2022-08-05T16:38:25.184Z,100878.13
2022-08-05T16:41:00.923Z,100903.63
2022-08-05T16:43:33.250Z,100918.50
2022-08-05T16:46:24.016Z,100908.72
2022-08-05T16:48:56.396Z,100911.66
2022-08-05T16:51:30.739Z,100905.66
2022-08-05T16:54:17.323Z,100903.63
2022-08-05T16:56:52.168Z,100899.41
2022-08-05T16:59:23.886Z,100928.31
2022-08-05T17:01:56.440Z,100917.56
2022-08-05T17:04:28.545Z,100918.50
2022-08-05T17:07:01.421Z,100932.16
2022-08-05T17:09:38.845Z,100942.41
2022-08-05T17:12:51.766Z,100949.69
2022-08-05T17:15:19.563Z,100959.25
2022-08-05T17:18:02.245Z,100961.03
2022-08-05T17:20:33.952Z,100968.94
2022-08-05T17:23:05.815Z,100981.38
2022-08-05T17:25:40.418Z,100990.78
2022-08-05T17:28:15.588Z,100996.97
2022-08-05T17:30:51.882Z,100998.97
2022-08-05T17:33:23.914Z,101007.00
2022-08-05T17:36:07.444Z,101019.88
2022-08-05T17:38:40.864Z,101013.59
2022-08-05T17:42:16.563Z,101013.00
2022-08-05T17:44:04.805Z,101020.91
2022-08-05T17:46:36.374Z,101034.78
2022-08-05T17:49:08.051Z,101045.72
2022-08-05T17:51:40.375Z,101046.06
2022-08-05T17:54:12.289Z,101051.63
2022-08-05T17:56:49.099Z,101059.38
2022-08-05T17:59:22.934Z,101060.72
2022-08-05T18:01:55.070Z,100945.22
2022-08-05T18:04:27.907Z,101064.03
2022-08-05T18:07:02.621Z,101061.59
2022-08-05T18:09:59.848Z,101063.63
2022-08-05T18:12:26.233Z,101051.47
2022-08-05T18:14:57.950Z,101067.72
2022-08-05T18:18:01.310Z,100961.00
2022-08-05T18:20:29.408Z,101082.09
2022-08-05T18:23:08.966Z,101085.06
2022-08-05T18:25:44.830Z,101079.66
2022-08-05T18:28:17.948Z,101088.09
2022-08-05T18:30:53.689Z,101100.00
2022-08-05T18:33:25.710Z,101109.22
2022-08-05T18:36:04.977Z,101117.88
2022-08-05T18:38:38.906Z,101110.84
2022-08-05T18:41:58.335Z,101109.75
2022-08-05T18:44:05.821Z,101120.03
2022-08-05T18:46:41.039Z,101118.94
2022-08-05T18:49:44.497Z,101130.84
2022-08-05T18:52:50.897Z,101136.81
2022-08-05T18:55:23.243Z,101150.91
2022-08-05T18:58:03.519Z,101149.56
2022-08-05T19:00:35.161Z,101152.25
2022-08-05T19:03:07.194Z,101157.91
2022-08-05T19:06:11.690Z,101151.41
2022-08-05T19:08:31.298Z,101157.38
2022-08-05T19:11:05.251Z,101153.59
2022-08-05T19:13:39.458Z,101158.97
2022-08-05T19:16:24.313Z,101168.69
2022-08-05T19:18:57.586Z,101177.06
2022-08-05T19:21:29.509Z,101185.44
2022-08-05T19:24:12.581Z,101192.75
2022-08-05T19:26:55.435Z,101196.75
2022-08-05T19:29:36.057Z,101195.66
2022-08-05T19:32:11.697Z,101203.75
2022-08-05T19:34:54.992Z,101198.31
2022-08-05T19:37:29.752Z,101199.41
2022-08-05T19:40:18.660Z,101213.44
2022-08-05T19:43:04.900Z,101224.53
2022-08-05T19:45:37.314Z,101232.09
2022-08-05T19:48:14.347Z,101236.38
2022-08-05T19:50:46.369Z,101232.59
2022-08-05T19:53:17.942Z,101240.13
2022-08-05T19:56:15.022Z,101243.59
2022-08-05T19:58:53.910Z,101244.66
2022-08-05T20:01:28.458Z,101248.44
2022-08-05T20:04:00.315Z,101074.84
2022-08-05T20:06:37.790Z,101250.56
2022-08-05T20:09:17.534Z,101251.38
2022-08-05T20:11:49.549Z,101251.69
2022-08-05T20:14:27.106Z,101252.75
2022-08-05T20:16:59.355Z,101260.25
2022-08-05T20:19:36.337Z,101259.72
2022-08-05T20:22:13.485Z,101257.00
2022-08-05T20:24:45.022Z,101262.44
2022-08-05T20:27:16.907Z,101266.19
2022-08-05T20:29:58.228Z,101278.34
2022-08-05T20:32:30.754Z,101284.53
2022-08-05T20:35:04.719Z,101292.84
2022-08-05T20:38:06.741Z,101297.88
2022-08-05T20:40:30.376Z,101305.44
2022-08-05T20:43:04.697Z,101304.88
2022-08-05T20:45:55.878Z,101304.66
2022-08-05T20:48:28.360Z,101318.91
2022-08-05T20:50:59.918Z,101326.69
2022-08-05T20:53:40.981Z,101326.44
2022-08-05T20:56:12.823Z,101333.38
2022-08-05T20:58:44.395Z,101343.06
2022-08-05T21:01:15.963Z,101347.38
2022-08-05T21:03:48.238Z,101354.09
2022-08-05T21:06:27.626Z,101352.09
2022-08-05T21:09:00.461Z,101362.38
2022-08-05T21:12:09.513Z,101369.06
2022-08-05T21:14:26.729Z,101358.78
2022-08-05T21:16:58.776Z,101361.25
2022-08-05T21:19:47.006Z,101373.09
2022-08-05T21:22:21.758Z,101379.03
2022-08-05T21:24:54.968Z,101379.09
2022-08-05T21:27:27.392Z,101375.28
2022-08-05T21:30:01.941Z,101369.63
2022-08-05T21:32:34.419Z,101367.63
2022-08-05T21:35:17.554Z,101380.50
2022-08-05T21:37:58.890Z,101372.94
2022-08-05T21:40:30.494Z,101370.78
2022-08-05T21:43:02.495Z,101379.09
2022-08-05T21:45:57.002Z,101381.63
2022-08-05T21:48:29.171Z,101377.00
2022-08-05T21:51:03.452Z,101371.72
2022-08-05T21:53:59.660Z,101373.53
2022-08-05T21:56:35.539Z,101393.97
2022-08-05T21:59:22.531Z,101391.78
2022-08-05T22:01:57.013Z,101403.63
2022-08-05T22:04:28.567Z,101410.91
2022-08-05T22:07:00.475Z,101399.19
2022-08-05T22:09:45.461Z,101392.09
2022-08-05T22:12:18.173Z,101387.78
2022-08-05T22:14:58.122Z,101394.75
2022-08-05T22:17:31.864Z,101403.88
2022-08-05T22:20:13.705Z,101415.97
2022-08-05T22:23:17.060Z,101425.38
2022-08-05T22:26:10.554Z,101425.13
2022-08-05T22:28:43.440Z,101414.59
2022-08-05T22:31:16.983Z,101424.25
2022-08-05T22:33:57.387Z,101437.47
2022-08-05T22:36:32.078Z,101434.69
2022-08-05T22:39:04.385Z,101441.16
2022-08-05T22:42:10.151Z,101434.88
2022-08-05T22:44:33.327Z,101428.41
2022-08-05T22:47:06.669Z,101429.81
2022-08-05T22:50:20.848Z,101435.13
2022-08-05T22:52:34.287Z,101440.25
2022-08-05T22:55:18.611Z,101448.22
2022-08-05T22:57:52.131Z,101441.22
2022-08-05T23:00:23.717Z,101442.75
2022-08-05T23:02:56.555Z,101447.09
2022-08-05T23:05:29.672Z,101437.31
2022-08-05T23:08:07.748Z,101440.72
2022-08-05T23:10:43.274Z,101447.44
2022-08-05T23:13:15.321Z,101443.09
2022-08-05T23:15:50.257Z,101446.78
2022-08-05T23:18:22.934Z,101445.97
2022-08-05T23:20:54.630Z,101453.94
2022-08-05T23:23:26.499Z,101452.81
2022-08-05T23:26:05.215Z,101453.50
2022-08-05T23:28:37.069Z,101450.13
2022-08-05T23:31:17.363Z,101456.56
2022-08-05T23:34:05.658Z,101474.75
2022-08-05T23:36:39.856Z,101484.84
2022-08-05T23:39:31.879Z,101488.00
2022-08-05T23:42:04.168Z,101486.28
2022-08-05T23:44:40.707Z,101498.31
2022-08-05T23:47:16.252Z,101496.09
2022-08-05T23:49:48.213Z,101492.25
2022-08-05T23:52:27.536Z,101490.75
2022-08-05T23:54:59.412Z,101495.00
2022-08-05T23:57:31.332Z,101498.41
